createdAt,value
2018-10-17T00:00:20.002Z,16.14
2018-10-17T00:02:50.001Z,16.14
2018-10-17T00:05:20.188Z,16.17
2018-10-17T00:07:50.402Z,16.19
2018-10-17T00:10:20.771Z,16.20
2018-10-17T00:12:49.591Z,16.21
2018-10-17T00:15:18.401Z,16.19
2018-10-17T00:17:47.198Z,16.17
2018-10-17T00:20:16.279Z,16.16
2018-10-17T00:22:45.410Z,16.16
2018-10-17T00:25:14.479Z,16.14
2018-10-17T00:27:43.305Z,16.12
2018-10-17T00:30:13.390Z,16.11
2018-10-17T00:32:42.451Z,16.09
2018-10-17T00:35:11.404Z,16.06
2018-10-17T00:37:40.756Z,16.06
2018-10-17T00:40:09.663Z,16.01
2018-10-17T00:42:38.824Z,15.98
2018-10-17T00:45:08.654Z,15.95
2018-10-17T00:47:37.569Z,15.93
2018-10-17T00:50:06.426Z,15.93
2018-10-17T00:52:35.251Z,15.90
2018-10-17T00:55:04.134Z,15.86
2018-10-17T00:57:33.633Z,15.82
2018-10-17T01:00:02.443Z,15.81
2018-10-17T01:02:31.383Z,15.79
2018-10-17T01:05:00.275Z,15.76
2018-10-17T01:07:29.179Z,15.71
2018-10-17T01:09:58.025Z,15.68
2018-10-17T01:12:26.816Z,15.63
2018-10-17T01:14:55.663Z,15.62
2018-10-17T01:17:24.425Z,15.62
2018-10-17T01:19:53.242Z,15.62
2018-10-17T01:22:22.403Z,15.60
2018-10-17T01:24:51.216Z,15.59
2018-10-17T01:27:20.016Z,15.58
2018-10-17T01:29:49.051Z,15.57
2018-10-17T01:32:17.859Z,15.56
2018-10-17T01:34:47.093Z,15.51
2018-10-17T01:37:15.922Z,15.48
2018-10-17T01:39:44.677Z,15.50
2018-10-17T01:42:13.492Z,15.46
2018-10-17T01:44:42.334Z,15.45
2018-10-17T01:47:11.235Z,15.42
2018-10-17T01:49:40.358Z,15.40
2018-10-17T01:52:09.383Z,15.40
2018-10-17T01:54:38.462Z,15.39
2018-10-17T01:57:07.494Z,15.37
2018-10-17T01:59:36.429Z,15.37
2018-10-17T02:02:05.429Z,15.37
2018-10-17T02:04:34.267Z,15.34
2018-10-17T02:07:03.640Z,15.30
2018-10-17T02:09:32.403Z,15.25
2018-10-17T02:12:01.841Z,15.23
2018-10-17T02:14:30.647Z,15.21
2018-10-17T02:16:59.819Z,15.19
2018-10-17T02:19:28.787Z,15.16
2018-10-17T02:21:57.624Z,15.11
2018-10-17T02:24:26.408Z,15.09
2018-10-17T02:26:55.509Z,15.07
2018-10-17T02:29:24.555Z,15.06
2018-10-17T02:31:53.371Z,15.01
2018-10-17T02:34:22.224Z,15.00
2018-10-17T02:36:51.095Z,14.99
2018-10-17T02:39:20.607Z,14.99
2018-10-17T02:41:49.890Z,14.96
2018-10-17T02:44:19.462Z,14.96
2018-10-17T02:46:48.494Z,14.92
2018-10-17T02:49:17.777Z,14.88
2018-10-17T02:51:46.576Z,14.86
2018-10-17T02:54:15.467Z,14.83
2018-10-17T02:56:44.268Z,14.78
2018-10-17T02:59:13.572Z,14.77
2018-10-17T03:01:42.614Z,14.74
2018-10-17T03:04:11.752Z,14.70
2018-10-17T03:06:40.903Z,14.69
2018-10-17T03:09:10.060Z,14.66
2018-10-17T03:11:39.120Z,14.64
2018-10-17T03:14:07.918Z,14.60
2018-10-17T03:16:36.906Z,14.56
2018-10-17T03:19:06.004Z,14.52
2018-10-17T03:21:35.518Z,14.50
2018-10-17T03:24:04.517Z,14.47
2018-10-17T03:26:33.311Z,14.47
2018-10-17T03:29:02.451Z,14.48
2018-10-17T03:31:31.469Z,14.48
2018-10-17T03:34:00.244Z,14.46
2018-10-17T03:36:29.648Z,14.45
2018-10-17T03:38:58.731Z,14.44
2018-10-17T03:41:27.889Z,14.42
2018-10-17T03:43:59.782Z,14.38
2018-10-17T03:46:29.692Z,14.36
2018-10-17T03:48:58.499Z,14.33
2018-10-17T03:51:27.387Z,14.31
2018-10-17T03:53:56.239Z,14.30
2018-10-17T03:56:25.067Z,14.30
2018-10-17T03:58:53.839Z,14.29
2018-10-17T04:01:22.622Z,14.26
2018-10-17T04:03:51.777Z,14.23
2018-10-17T04:06:21.438Z,14.20
2018-10-17T04:08:50.501Z,14.17
2018-10-17T04:11:19.304Z,14.14
2018-10-17T04:13:48.413Z,14.13
2018-10-17T04:16:17.593Z,14.11
2018-10-17T04:18:46.723Z,14.09
2018-10-17T04:21:15.624Z,14.06
2018-10-17T04:23:44.759Z,14.05
2018-10-17T04:26:13.613Z,14.02
2018-10-17T04:28:42.609Z,14.00
2018-10-17T04:31:11.470Z,13.98
2018-10-17T04:33:40.574Z,13.95
2018-10-17T04:36:09.749Z,13.94
2018-10-17T04:38:38.819Z,13.93
2018-10-17T04:41:07.758Z,13.90
2018-10-17T04:43:37.206Z,13.88
2018-10-17T04:46:06.668Z,13.84
2018-10-17T04:48:36.550Z,13.82
2018-10-17T04:51:05.709Z,13.79
2018-10-17T04:53:34.692Z,13.78
2018-10-17T04:56:03.926Z,13.76
2018-10-17T04:58:32.692Z,13.75
2018-10-17T05:01:01.840Z,13.71
2018-10-17T05:03:30.884Z,13.69
2018-10-17T05:05:59.715Z,13.66
2018-10-17T05:08:28.837Z,13.65
2018-10-17T05:10:57.652Z,13.64
2018-10-17T05:13:26.785Z,13.62
2018-10-17T05:15:55.496Z,13.60
2018-10-17T05:18:24.278Z,13.58
2018-10-17T05:20:53.028Z,13.56
2018-10-17T05:23:22.143Z,13.53
2018-10-17T05:25:51.012Z,13.49
2018-10-17T05:28:20.254Z,13.46
2018-10-17T05:30:49.127Z,13.42
2018-10-17T05:33:17.890Z,13.42
2018-10-17T05:35:46.664Z,13.38
2018-10-17T05:38:15.853Z,13.37
2018-10-17T05:40:45.600Z,13.34
2018-10-17T05:43:14.506Z,13.32
2018-10-17T05:45:43.564Z,13.34
2018-10-17T05:48:12.400Z,13.35
2018-10-17T05:50:41.200Z,13.33
2018-10-17T05:53:10.433Z,13.34
2018-10-17T05:55:39.245Z,13.35
2018-10-17T05:58:08.546Z,13.34
2018-10-17T06:00:37.793Z,13.34
2018-10-17T06:03:07.325Z,13.35
2018-10-17T06:05:36.099Z,13.33
2018-10-17T06:08:05.479Z,13.29
2018-10-17T06:10:34.346Z,13.26
2018-10-17T06:13:03.499Z,13.25
2018-10-17T06:15:32.525Z,13.25
2018-10-17T06:18:01.278Z,13.22
2018-10-17T06:20:30.082Z,13.20
2018-10-17T06:22:58.976Z,13.21
2018-10-17T06:25:28.043Z,13.20
2018-10-17T06:27:56.847Z,13.19
2018-10-17T06:30:26.058Z,13.16
2018-10-17T06:32:54.932Z,13.12
2018-10-17T06:35:23.810Z,13.07
2018-10-17T06:37:52.769Z,13.07
2018-10-17T06:40:22.507Z,13.04
2018-10-17T06:42:51.575Z,13.01
2018-10-17T06:45:21.108Z,13.01
2018-10-17T06:47:50.106Z,13.02
2018-10-17T06:50:19.258Z,13.03
2018-10-17T06:52:48.481Z,13.05
2018-10-17T06:55:17.377Z,13.06
2018-10-17T06:57:46.332Z,13.07
2018-10-17T07:00:15.448Z,13.06
2018-10-17T07:02:44.538Z,13.09
2018-10-17T07:05:13.577Z,13.13
2018-10-17T07:07:42.348Z,13.14
2018-10-17T07:10:11.748Z,13.12
2018-10-17T07:12:40.536Z,13.12
2018-10-17T07:15:09.362Z,13.11
2018-10-17T07:17:38.237Z,13.11
2018-10-17T07:20:08.257Z,13.10
2018-10-17T07:22:37.710Z,13.11
2018-10-17T07:25:06.812Z,13.12
2018-10-17T07:27:35.599Z,13.14
2018-10-17T07:30:05.340Z,13.17
2018-10-17T07:32:34.450Z,13.18
2018-10-17T07:35:03.245Z,13.19
2018-10-17T07:37:32.125Z,13.20
2018-10-17T07:40:01.159Z,13.20
2018-10-17T07:42:30.084Z,13.20
2018-10-17T07:44:58.854Z,13.22
2018-10-17T07:47:27.670Z,13.25
2018-10-17T07:49:56.421Z,13.24
2018-10-17T07:52:25.678Z,13.23
2018-10-17T07:54:54.473Z,13.26
2018-10-17T07:57:23.830Z,13.30
2018-10-17T07:59:53.229Z,13.36
2018-10-17T08:02:22.227Z,13.41
2018-10-17T08:04:51.308Z,13.46
2018-10-17T08:07:20.421Z,13.50
2018-10-17T08:09:49.297Z,13.58
2018-10-17T08:12:18.267Z,13.65
2018-10-17T08:14:47.362Z,13.73
2018-10-17T08:17:16.245Z,13.81
2018-10-17T08:19:45.103Z,13.92
2018-10-17T08:22:14.250Z,14.04
2018-10-17T08:24:43.082Z,14.13
2018-10-17T08:27:12.430Z,14.21
2018-10-17T08:29:41.958Z,14.33
2018-10-17T08:32:11.090Z,14.42
2018-10-17T08:34:39.926Z,14.53
2018-10-17T08:37:09.118Z,14.63
2018-10-17T08:39:37.702Z,14.74
2018-10-17T08:42:07.171Z,14.85
2018-10-17T08:44:35.996Z,14.96
2018-10-17T08:47:05.588Z,15.08
2018-10-17T08:49:34.637Z,15.19
2018-10-17T08:52:03.501Z,15.30
2018-10-17T08:54:32.656Z,15.41
2018-10-17T08:57:01.517Z,15.53
2018-10-17T08:59:30.447Z,15.64
2018-10-17T09:01:59.360Z,15.73
2018-10-17T09:04:28.387Z,15.85
2018-10-17T09:06:57.609Z,15.96
2018-10-17T09:09:26.776Z,16.06
2018-10-17T09:11:56.086Z,16.17
2018-10-17T09:14:24.929Z,16.28
2018-10-17T09:16:53.759Z,16.38
2018-10-17T09:19:22.590Z,16.49
2018-10-17T09:21:51.686Z,16.58
2018-10-17T09:24:20.500Z,16.68
2018-10-17T09:26:49.286Z,16.73
2018-10-17T09:29:18.565Z,16.82
2018-10-17T09:31:47.414Z,16.87
2018-10-17T09:34:16.573Z,16.93
2018-10-17T09:36:45.777Z,17.03
2018-10-17T09:39:15.287Z,17.13
2018-10-17T09:41:44.058Z,17.22
2018-10-17T09:44:13.248Z,17.28
2018-10-17T09:46:42.374Z,17.39
2018-10-17T09:49:11.411Z,17.50
2018-10-17T09:51:40.246Z,17.63
2018-10-17T09:54:09.211Z,17.78
2018-10-17T09:56:38.057Z,17.91
2018-10-17T09:59:06.841Z,18.07
2018-10-17T10:01:41.240Z,18.23
2018-10-17T10:04:10.229Z,18.39
2018-10-17T10:06:39.435Z,18.54
2018-10-17T10:09:09.587Z,18.70
2018-10-17T10:11:38.506Z,18.84
2018-10-17T10:14:07.331Z,19.03
2018-10-17T10:16:36.470Z,19.23
2018-10-17T10:19:05.769Z,19.44
2018-10-17T10:21:35.020Z,19.58
2018-10-17T10:24:03.997Z,19.66
2018-10-17T10:26:32.808Z,19.72
2018-10-17T10:29:01.652Z,19.83
2018-10-17T10:31:30.514Z,19.98
2018-10-17T10:33:59.908Z,20.08
2018-10-17T10:36:29.254Z,20.18
2018-10-17T10:38:58.668Z,20.28
2018-10-17T10:41:27.485Z,20.43
2018-10-17T10:43:56.757Z,20.58
2018-10-17T10:46:25.574Z,20.62
2018-10-17T10:48:54.658Z,20.73
2018-10-17T10:51:23.871Z,20.87
2018-10-17T10:53:52.556Z,20.99
2018-10-17T10:56:21.304Z,21.06
2018-10-17T10:58:50.400Z,21.14
2018-10-17T11:01:19.452Z,21.21
2018-10-17T11:03:48.420Z,21.24
2018-10-17T11:06:17.240Z,21.28
2018-10-17T11:08:46.079Z,21.36
2018-10-17T11:11:14.970Z,21.36
2018-10-17T11:13:43.806Z,21.44
2018-10-17T11:16:18.918Z,21.49
2018-10-17T11:18:47.796Z,21.56
2018-10-17T11:21:16.751Z,21.65
2018-10-17T11:23:45.892Z,21.68
2018-10-17T11:26:14.713Z,21.69
2018-10-17T11:28:43.491Z,21.69
2018-10-17T11:31:12.731Z,21.66
2018-10-17T11:33:41.542Z,21.67
2018-10-17T11:36:10.546Z,21.68
2018-10-17T11:38:40.030Z,21.72
2018-10-17T11:41:08.873Z,21.74
2018-10-17T11:43:37.587Z,21.78
2018-10-17T11:46:07.372Z,21.83
2018-10-17T11:48:36.368Z,21.92
2018-10-17T11:51:05.411Z,22.03
2018-10-17T11:53:34.237Z,22.13
2018-10-17T11:56:03.395Z,22.25
2018-10-17T11:58:32.447Z,22.33
2018-10-17T12:01:01.542Z,22.39
2018-10-17T12:03:30.848Z,22.39
2018-10-17T12:05:59.583Z,22.41
2018-10-17T12:08:28.341Z,22.39
2018-10-17T12:10:57.379Z,22.41
2018-10-17T12:13:26.991Z,22.41
2018-10-17T12:15:55.783Z,22.43
2018-10-17T12:18:24.673Z,22.40
2018-10-17T12:20:53.454Z,22.40
2018-10-17T12:23:22.424Z,22.35
2018-10-17T12:25:51.631Z,22.28
2018-10-17T12:28:20.993Z,22.32
2018-10-17T12:30:50.045Z,22.29
2018-10-17T12:33:19.187Z,22.31
2018-10-17T12:35:48.327Z,22.33
2018-10-17T12:38:17.161Z,22.35
2018-10-17T12:40:46.298Z,22.38
2018-10-17T12:43:15.359Z,22.42
2018-10-17T12:45:44.489Z,22.50
2018-10-17T12:48:13.250Z,22.49
2018-10-17T12:50:42.870Z,22.45
2018-10-17T12:53:12.293Z,22.46
2018-10-17T12:55:41.227Z,22.48
2018-10-17T12:58:10.503Z,22.52
2018-10-17T13:00:39.711Z,22.42
2018-10-17T13:03:09.214Z,22.46
2018-10-17T13:05:38.098Z,22.39
2018-10-17T13:08:07.246Z,22.34
2018-10-17T13:10:36.702Z,22.25
2018-10-17T13:13:05.631Z,22.21
2018-10-17T13:15:34.371Z,22.27
2018-10-17T13:18:03.886Z,22.30
2018-10-17T13:20:32.887Z,22.27
2018-10-17T13:23:02.201Z,22.24
2018-10-17T13:25:31.703Z,22.28
2018-10-17T13:28:00.672Z,22.28
2018-10-17T13:30:30.431Z,22.27
2018-10-17T13:32:59.458Z,22.32
2018-10-17T13:35:28.225Z,22.38
2018-10-17T13:37:57.363Z,22.41
2018-10-17T13:40:26.495Z,22.41
2018-10-17T13:42:55.323Z,22.49
2018-10-17T13:45:24.183Z,22.61
2018-10-17T13:47:52.899Z,22.63
2018-10-17T13:50:21.936Z,22.65
2018-10-17T13:52:50.831Z,22.77
2018-10-17T13:55:20.126Z,22.87
2018-10-17T13:57:48.998Z,23.01
2018-10-17T14:00:17.783Z,23.14
2018-10-17T14:02:47.063Z,23.20
2018-10-17T14:05:15.995Z,23.21
2018-10-17T14:07:45.179Z,23.27
2018-10-17T14:10:13.953Z,23.38
2018-10-17T14:12:42.764Z,23.46
2018-10-17T14:15:14.719Z,23.56
2018-10-17T14:17:43.822Z,23.46
2018-10-17T14:20:12.612Z,23.39
2018-10-17T14:22:41.904Z,23.29
2018-10-17T14:25:10.723Z,23.17
2018-10-17T14:27:39.567Z,23.15
2018-10-17T14:30:09.354Z,23.15
2018-10-17T14:32:38.096Z,23.13
2018-10-17T14:35:10.503Z,23.12
2018-10-17T14:37:40.110Z,23.06
2018-10-17T14:40:08.906Z,23.07
2018-10-17T14:42:37.700Z,23.08
2018-10-17T14:45:08.609Z,23.02
2018-10-17T14:47:37.613Z,22.97
2018-10-17T14:50:06.415Z,22.96
2018-10-17T14:52:35.431Z,22.91
2018-10-17T14:55:04.926Z,22.81
2018-10-17T14:57:33.968Z,22.74
2018-10-17T15:00:03.356Z,22.68
2018-10-17T15:02:32.277Z,22.56
2018-10-17T15:05:01.133Z,22.51
2018-10-17T15:07:33.004Z,22.42
2018-10-17T15:10:02.726Z,22.30
2018-10-17T15:12:32.113Z,22.20
2018-10-17T15:15:01.110Z,22.11
2018-10-17T15:17:30.359Z,22.05
2018-10-17T15:19:59.789Z,22.04
2018-10-17T15:22:28.744Z,21.97
2018-10-17T15:24:57.535Z,21.84
2018-10-17T15:27:26.349Z,21.82
2018-10-17T15:29:56.449Z,21.78
2018-10-17T15:32:27.374Z,21.75
2018-10-17T15:34:56.772Z,21.71
2018-10-17T15:37:26.585Z,21.67
2018-10-17T15:39:55.987Z,21.62
2018-10-17T15:42:25.279Z,21.58
2018-10-17T15:44:54.177Z,21.53
2018-10-17T15:47:23.353Z,21.47
2018-10-17T15:49:52.705Z,21.42
2018-10-17T15:52:21.603Z,21.39
2018-10-17T15:54:54.273Z,21.29
2018-10-17T15:57:23.613Z,21.24
2018-10-17T15:59:52.512Z,21.20
2018-10-17T16:02:22.169Z,21.18
2018-10-17T16:04:51.073Z,21.16
2018-10-17T16:07:21.066Z,21.13
2018-10-17T16:09:50.244Z,21.06
2018-10-17T16:12:19.031Z,21.00
2018-10-17T16:14:47.927Z,20.96
2018-10-17T16:17:16.746Z,20.91
2018-10-17T16:19:46.010Z,20.83
2018-10-17T16:22:14.886Z,20.75
2018-10-17T16:24:43.985Z,20.66
2018-10-17T16:27:12.766Z,20.49
2018-10-17T16:29:41.614Z,20.34
2018-10-17T16:32:10.477Z,20.12
2018-10-17T16:34:39.273Z,19.94
2018-10-17T16:37:08.778Z,19.79
2018-10-17T16:39:37.571Z,19.61
2018-10-17T16:42:06.659Z,19.45
2018-10-17T16:44:35.553Z,19.36
2018-10-17T16:47:04.326Z,19.29
2018-10-17T16:49:33.569Z,19.16
2018-10-17T16:52:02.340Z,19.03
2018-10-17T16:54:31.526Z,18.89
2018-10-17T16:57:00.485Z,18.80
2018-10-17T16:59:29.614Z,18.66
2018-10-17T17:01:58.394Z,18.50
2018-10-17T17:04:27.244Z,18.36
2018-10-17T17:06:56.067Z,18.27
2018-10-17T17:09:24.891Z,18.24
2018-10-17T17:11:53.944Z,18.21
2018-10-17T17:14:22.819Z,18.17
2018-10-17T17:16:51.680Z,18.09
2018-10-17T17:19:21.453Z,18.06
2018-10-17T17:21:50.316Z,18.06
2018-10-17T17:24:20.665Z,18.05
2018-10-17T17:26:49.775Z,18.03
2018-10-17T17:29:19.009Z,18.00
2018-10-17T17:31:47.848Z,17.93
2018-10-17T17:34:17.158Z,17.89
2018-10-17T17:36:46.042Z,17.85
2018-10-17T17:39:14.865Z,17.83
2018-10-17T17:41:43.828Z,17.79
2018-10-17T17:44:12.599Z,17.75
2018-10-17T17:46:41.490Z,17.72
2018-10-17T17:49:10.540Z,17.66
2018-10-17T17:51:39.377Z,17.63
2018-10-17T17:54:08.191Z,17.54
2018-10-17T17:56:36.934Z,17.45
2018-10-17T17:59:05.851Z,17.40
2018-10-17T18:01:34.739Z,17.33
2018-10-17T18:04:03.905Z,17.28
2018-10-17T18:06:32.819Z,17.22
2018-10-17T18:09:02.057Z,17.25
2018-10-17T18:11:30.825Z,17.20
2018-10-17T18:13:59.971Z,17.11
2018-10-17T18:16:29.034Z,17.04
2018-10-17T18:18:58.022Z,17.04
2018-10-17T18:21:26.826Z,17.02
2018-10-17T18:23:55.922Z,16.97
2018-10-17T18:26:24.992Z,16.97
2018-10-17T18:28:54.242Z,16.93
2018-10-17T18:31:23.401Z,16.92
2018-10-17T18:33:52.255Z,16.92
2018-10-17T18:36:21.319Z,16.95
2018-10-17T18:38:50.114Z,16.96
2018-10-17T18:41:19.339Z,16.93
2018-10-17T18:43:48.247Z,16.92
2018-10-17T18:46:17.231Z,16.90
2018-10-17T18:48:46.243Z,16.90
2018-10-17T18:51:15.164Z,16.90
2018-10-17T18:53:44.930Z,16.90
2018-10-17T18:56:13.754Z,16.89
2018-10-17T18:58:43.283Z,16.87
2018-10-17T19:01:12.350Z,16.88
2018-10-17T19:03:41.297Z,16.91
2018-10-17T19:06:10.058Z,16.92
2018-10-17T19:08:39.172Z,16.90
2018-10-17T19:11:08.671Z,16.86
2018-10-17T19:13:37.446Z,16.85
2018-10-17T19:16:07.012Z,16.83
2018-10-17T19:18:35.783Z,16.76
2018-10-17T19:21:04.958Z,16.73
2018-10-17T19:23:33.671Z,16.69
2018-10-17T19:26:02.672Z,16.67
2018-10-17T19:28:31.814Z,16.66
2018-10-17T19:31:00.618Z,16.66
2018-10-17T19:33:29.374Z,16.58
2018-10-17T19:35:58.237Z,16.55
2018-10-17T19:38:27.357Z,16.57
2018-10-17T19:40:56.598Z,16.58
2018-10-17T19:43:25.353Z,16.53
2018-10-17T19:45:54.744Z,16.50
2018-10-17T19:48:23.550Z,16.47
2018-10-17T19:50:52.657Z,16.42
2018-10-17T19:53:22.029Z,16.43
2018-10-17T19:55:50.945Z,16.39
2018-10-17T19:58:20.317Z,16.36
2018-10-17T20:00:49.172Z,16.36
2018-10-17T20:03:17.947Z,16.30
2018-10-17T20:05:47.331Z,16.27
2018-10-17T20:08:16.283Z,16.22
2018-10-17T20:10:45.737Z,16.18
2018-10-17T20:13:14.582Z,16.17
2018-10-17T20:15:43.485Z,16.17
2018-10-17T20:18:13.307Z,16.11
2018-10-17T20:20:42.362Z,16.06
2018-10-17T20:23:11.361Z,16.03
2018-10-17T20:25:40.188Z,16.00
2018-10-17T20:28:09.314Z,15.96
2018-10-17T20:30:38.162Z,15.93
2018-10-17T20:33:07.339Z,15.92
2018-10-17T20:35:36.357Z,15.92
2018-10-17T20:38:05.815Z,15.89
2018-10-17T20:40:35.214Z,15.85
2018-10-17T20:43:04.667Z,15.84
2018-10-17T20:45:33.495Z,15.82
2018-10-17T20:48:02.276Z,15.81
2018-10-17T20:50:31.547Z,15.76
2018-10-17T20:53:00.630Z,15.73
2018-10-17T20:55:29.507Z,15.70
2018-10-17T20:57:59.818Z,15.68
2018-10-17T21:00:28.958Z,15.66
2018-10-17T21:02:58.069Z,15.63
2018-10-17T21:05:27.163Z,15.62
2018-10-17T21:07:56.056Z,15.61
2018-10-17T21:10:24.834Z,15.60
2018-10-17T21:12:53.628Z,15.56
2018-10-17T21:15:22.515Z,15.52
2018-10-17T21:17:51.553Z,15.48
2018-10-17T21:20:20.712Z,15.45
2018-10-17T21:22:49.630Z,15.42
2018-10-17T21:25:18.765Z,15.39
2018-10-17T21:27:48.201Z,15.36
2018-10-17T21:30:17.323Z,15.33
2018-10-17T21:32:46.166Z,15.29
2018-10-17T21:35:14.980Z,15.27
2018-10-17T21:37:44.291Z,15.25
2018-10-17T21:40:13.676Z,15.22
2018-10-17T21:42:44.046Z,15.20
2018-10-17T21:45:13.376Z,15.20
2018-10-17T21:47:42.910Z,15.18
2018-10-17T21:50:11.987Z,15.18
2018-10-17T21:52:41.850Z,15.17
2018-10-17T21:55:10.784Z,15.16
2018-10-17T21:57:40.248Z,15.14
2018-10-17T22:00:10.478Z,15.12
2018-10-17T22:02:39.899Z,15.08
2018-10-17T22:05:10.253Z,15.05
2018-10-17T22:07:39.528Z,15.02
2018-10-17T22:10:09.525Z,15.01
2018-10-17T22:12:38.635Z,14.98
2018-10-17T22:15:09.304Z,14.94
2018-10-17T22:17:43.870Z,14.90
2018-10-17T22:20:13.835Z,14.85
2018-10-17T22:22:42.923Z,14.81
2018-10-17T22:25:11.802Z,14.78
2018-10-17T22:27:40.744Z,14.75
2018-10-17T22:30:09.691Z,14.72
2018-10-17T22:32:38.734Z,14.70
2018-10-17T22:35:07.683Z,14.67
2018-10-17T22:37:36.935Z,14.65
2018-10-17T22:40:05.830Z,14.63
2018-10-17T22:42:34.803Z,14.60
2018-10-17T22:45:04.695Z,14.55
2018-10-17T22:47:33.549Z,14.52
2018-10-17T22:50:03.173Z,14.51
2018-10-17T22:52:32.447Z,14.45
2018-10-17T22:55:01.391Z,14.41
2018-10-17T22:57:30.251Z,14.40
2018-10-17T22:59:59.095Z,14.38
2018-10-17T23:02:28.017Z,14.39
2018-10-17T23:04:57.340Z,14.37
2018-10-17T23:07:26.264Z,14.36
2018-10-17T23:09:55.195Z,14.35
2018-10-17T23:12:24.389Z,14.34
2018-10-17T23:14:53.209Z,14.34
2018-10-17T23:17:22.252Z,14.35
2018-10-17T23:19:52.348Z,14.36
2018-10-17T23:22:21.619Z,14.38
2018-10-17T23:24:51.253Z,14.39
2018-10-17T23:27:20.405Z,14.41
2018-10-17T23:29:49.220Z,14.40
2018-10-17T23:32:18.315Z,14.39
2018-10-17T23:34:47.355Z,14.38
2018-10-17T23:37:16.558Z,14.39
2018-10-17T23:39:45.603Z,14.38
2018-10-17T23:42:15.051Z,14.39
2018-10-17T23:44:44.432Z,14.41
2018-10-17T23:47:13.921Z,14.42
2018-10-17T23:49:42.976Z,14.43
2018-10-17T23:52:11.842Z,14.44
2018-10-17T23:54:40.630Z,14.42
2018-10-17T23:57:09.453Z,14.42
2018-10-17T23:59:38.735Z,14.39
